createdAt,value
2024-01-15T00:01:53.911Z,100.00
2024-01-15T00:04:21.467Z,100.00
2024-01-15T00:06:50.601Z,100.00
2024-01-15T00:09:17.871Z,100.00
2024-01-15T00:11:45.283Z,100.00
2024-01-15T00:14:13.171Z,100.00
2024-01-15T00:16:41.940Z,100.00
2024-01-15T00:19:09.631Z,100.00
2024-01-15T00:21:36.845Z,100.00
2024-01-15T00:24:06.064Z,100.00
2024-01-15T00:26:33.491Z,100.00
2024-01-15T00:29:00.726Z,100.00
2024-01-15T00:31:28.222Z,100.00
2024-01-15T00:33:55.930Z,100.00
2024-01-15T00:36:23.228Z,100.00
2024-01-15T00:38:50.491Z,100.00
2024-01-15T00:41:17.903Z,100.00
2024-01-15T00:43:50.392Z,100.00
2024-01-15T00:46:18.627Z,100.00
2024-01-15T00:48:46.310Z,100.00
2024-01-15T00:51:13.636Z,100.00
2024-01-15T00:53:41.444Z,100.00
2024-01-15T00:56:08.537Z,100.00
2024-01-15T00:58:35.666Z,100.00
2024-01-15T01:01:03.243Z,100.00
2024-01-15T01:03:30.943Z,100.00
2024-01-15T01:05:58.292Z,100.00
2024-01-15T01:08:25.898Z,100.00
2024-01-15T01:10:53.044Z,100.00
2024-01-15T01:13:20.467Z,100.00
2024-01-15T01:15:48.258Z,100.00
2024-01-15T01:18:15.612Z,100.00
2024-01-15T01:20:42.967Z,100.00
2024-01-15T01:23:10.475Z,100.00
2024-01-15T01:25:37.725Z,100.00
2024-01-15T01:28:05.061Z,100.00
2024-01-15T01:30:32.598Z,100.00
2024-01-15T01:32:59.842Z,100.00
2024-01-15T01:35:27.056Z,100.00
2024-01-15T01:37:54.476Z,100.00
2024-01-15T01:40:21.692Z,100.00
2024-01-15T01:42:49.682Z,100.00
2024-01-15T01:45:17.313Z,100.00
2024-01-15T01:47:44.656Z,100.00
2024-01-15T01:50:14.083Z,100.00
2024-01-15T01:52:42.004Z,100.00
2024-01-15T01:55:10.648Z,100.00
2024-01-15T01:57:38.014Z,100.00
2024-01-15T02:00:06.317Z,100.00
2024-01-15T02:02:38.736Z,100.00
2024-01-15T02:05:07.418Z,100.00
2024-01-15T02:07:36.927Z,100.00
2024-01-15T02:10:04.801Z,100.00
2024-01-15T02:12:32.203Z,100.00
2024-01-15T02:14:59.340Z,100.00
2024-01-15T02:17:26.524Z,100.00
2024-01-15T02:19:54.697Z,100.00
2024-01-15T02:22:21.884Z,100.00
2024-01-15T02:24:49.131Z,100.00
2024-01-15T02:27:21.958Z,100.00
2024-01-15T02:29:49.451Z,100.00
2024-01-15T02:32:17.583Z,100.00
2024-01-15T02:34:44.799Z,100.00
2024-01-15T02:37:12.697Z,100.00
2024-01-15T02:39:40.153Z,100.00
2024-01-15T02:42:07.389Z,100.00
2024-01-15T02:44:36.567Z,100.00
2024-01-15T02:47:04.123Z,100.00
2024-01-15T02:49:32.383Z,100.00
2024-01-15T02:51:59.586Z,100.00
2024-01-15T02:54:27.342Z,100.00
2024-01-15T02:56:54.497Z,100.00
2024-01-15T02:59:21.666Z,100.00
2024-01-15T03:01:49.133Z,100.00
2024-01-15T03:04:16.308Z,100.00
2024-01-15T03:06:43.558Z,100.00
2024-01-15T03:09:11.145Z,100.00
2024-01-15T03:11:39.882Z,100.00
2024-01-15T03:14:07.208Z,100.00
2024-01-15T03:16:34.591Z,100.00
2024-01-15T03:19:02.626Z,100.00
2024-01-15T03:21:29.788Z,100.00
2024-01-15T03:23:57.237Z,100.00
2024-01-15T03:26:24.427Z,100.00
2024-01-15T03:28:53.844Z,100.00
2024-01-15T03:31:22.382Z,100.00
2024-01-15T03:33:49.908Z,100.00
2024-01-15T03:36:17.044Z,100.00
2024-01-15T03:38:44.513Z,100.00
2024-01-15T03:41:11.658Z,100.00
2024-01-15T03:43:38.803Z,100.00
2024-01-15T03:46:06.268Z,100.00
2024-01-15T03:48:36.381Z,100.00
2024-01-15T03:51:03.805Z,100.00
2024-01-15T03:53:31.497Z,100.00
2024-01-15T03:55:58.600Z,100.00
2024-01-15T03:58:25.761Z,100.00
2024-01-15T04:00:53.265Z,100.00
2024-01-15T04:03:20.731Z,100.00
2024-01-15T04:05:48.177Z,100.00
2024-01-15T04:08:15.300Z,100.00
2024-01-15T04:10:42.800Z,100.00
2024-01-15T04:13:12.170Z,100.00
2024-01-15T04:15:42.461Z,100.00
2024-01-15T04:18:10.172Z,100.00
2024-01-15T04:20:37.332Z,100.00
2024-01-15T04:23:04.662Z,100.00
2024-01-15T04:25:32.238Z,100.00
2024-01-15T04:27:59.390Z,100.00
2024-01-15T04:30:26.699Z,100.00
2024-01-15T04:32:54.411Z,100.00
2024-01-15T04:35:21.576Z,100.00
2024-01-15T04:37:48.757Z,100.00
2024-01-15T04:40:17.358Z,100.00
2024-01-15T04:42:46.832Z,100.00
2024-01-15T04:45:14.195Z,100.00
2024-01-15T04:47:41.670Z,100.00
2024-01-15T04:50:16.996Z,100.00
2024-01-15T04:52:44.415Z,100.00
2024-01-15T04:55:11.588Z,100.00
2024-01-15T04:57:39.028Z,100.00
2024-01-15T05:00:07.142Z,100.00
2024-01-15T05:02:34.406Z,100.00
2024-01-15T05:05:01.538Z,100.00
2024-01-15T05:07:29.006Z,100.00
2024-01-15T05:09:56.989Z,100.00
2024-01-15T05:12:26.016Z,100.00
2024-01-15T05:14:53.493Z,100.00
2024-01-15T05:17:20.698Z,100.00
2024-01-15T05:19:50.954Z,100.00
2024-01-15T05:22:20.206Z,100.00
2024-01-15T05:24:47.402Z,100.00
2024-01-15T05:27:14.617Z,100.00
2024-01-15T05:29:44.136Z,100.00
2024-01-15T05:32:11.303Z,100.00
2024-01-15T05:34:38.987Z,100.00
2024-01-15T05:37:06.539Z,100.00
2024-01-15T05:39:35.695Z,100.00
2024-01-15T05:42:02.929Z,100.00
2024-01-15T05:44:30.321Z,100.00
2024-01-15T05:46:57.426Z,100.00
2024-01-15T05:49:25.036Z,100.00
2024-01-15T05:51:53.208Z,100.00
2024-01-15T05:54:21.220Z,100.00
2024-01-15T05:56:48.497Z,100.00
2024-01-15T05:59:16.362Z,100.00
2024-01-15T06:01:43.560Z,100.00
2024-01-15T06:04:11.293Z,100.00
2024-01-15T06:06:41.574Z,100.00
2024-01-15T06:09:10.022Z,100.00
2024-01-15T06:11:37.516Z,100.00
2024-01-15T06:14:04.702Z,100.00
2024-01-15T06:16:32.093Z,100.00
2024-01-15T06:18:59.584Z,100.00
2024-01-15T06:21:26.849Z,100.00
2024-01-15T06:23:54.141Z,100.00
2024-01-15T06:26:21.550Z,100.00
2024-01-15T06:28:49.040Z,100.00
2024-01-15T06:31:16.309Z,100.00
2024-01-15T06:33:46.130Z,100.00
2024-01-15T06:36:14.012Z,100.00
2024-01-15T06:38:41.310Z,100.00
2024-01-15T06:41:08.983Z,100.00
2024-01-15T06:43:36.144Z,100.00
2024-01-15T06:46:06.440Z,100.00
2024-01-15T06:48:35.341Z,100.00
2024-01-15T06:51:02.627Z,100.00
2024-01-15T06:53:37.130Z,100.00
2024-01-15T06:56:04.836Z,100.00
2024-01-15T06:58:35.130Z,100.00
2024-01-15T07:01:03.179Z,100.00
2024-01-15T07:03:30.986Z,100.00
2024-01-15T07:05:58.179Z,100.00
2024-01-15T07:08:25.312Z,100.00
2024-01-15T07:10:53.346Z,100.00
2024-01-15T07:13:21.011Z,100.00
2024-01-15T07:15:48.261Z,100.00
2024-01-15T07:18:16.111Z,100.00
2024-01-15T07:20:43.348Z,100.00
2024-01-15T07:23:10.517Z,100.00
2024-01-15T07:25:38.028Z,100.00
2024-01-15T07:28:06.093Z,100.00
2024-01-15T07:30:33.438Z,100.00
2024-01-15T07:33:01.100Z,100.00
2024-01-15T07:35:28.348Z,100.00
2024-01-15T07:37:56.987Z,100.00
2024-01-15T07:40:25.996Z,100.00
2024-01-15T07:42:53.677Z,100.00
2024-01-15T07:45:20.922Z,100.00
2024-01-15T07:47:48.634Z,100.00
2024-01-15T07:50:16.899Z,100.00
2024-01-15T07:52:44.088Z,100.00
2024-01-15T07:55:12.662Z,100.00
2024-01-15T07:57:39.903Z,100.00
2024-01-15T08:00:07.737Z,100.00
2024-01-15T08:02:37.628Z,100.00
2024-01-15T08:05:06.833Z,100.00
2024-01-15T08:07:34.042Z,100.00
2024-01-15T08:10:04.535Z,100.00
2024-01-15T08:12:31.714Z,100.00
2024-01-15T08:14:59.636Z,100.00
2024-01-15T08:17:29.938Z,100.00
2024-01-15T08:19:57.927Z,100.00
2024-01-15T08:22:25.261Z,100.00
2024-01-15T08:24:57.588Z,100.00
2024-01-15T08:27:25.369Z,100.00
2024-01-15T08:32:51.157Z,100.00
2024-01-15T08:35:18.684Z,100.00
2024-01-15T08:37:48.010Z,100.00
2024-01-15T08:40:16.897Z,100.00
2024-01-15T08:42:45.071Z,100.00
2024-01-15T08:45:12.728Z,100.00
2024-01-15T08:47:41.390Z,100.00
2024-01-15T08:50:11.519Z,100.00
2024-01-15T08:52:38.877Z,100.00
2024-01-15T08:55:06.476Z,100.00
2024-01-15T08:57:34.159Z,100.00
2024-01-15T09:00:01.543Z,100.00
2024-01-15T09:02:29.002Z,100.00
2024-01-15T09:04:56.543Z,100.00
2024-01-15T09:07:26.582Z,100.00
2024-01-15T09:09:54.346Z,100.00
2024-01-15T09:12:23.508Z,100.00
2024-01-15T09:21:17.423Z,100.00
2024-01-15T09:23:45.796Z,100.00
2024-01-15T09:26:16.457Z,100.00
2024-01-15T09:28:44.911Z,100.00
2024-01-15T09:31:13.961Z,100.00
2024-01-15T09:33:43.983Z,100.00
2024-01-15T09:36:13.919Z,100.00
2024-01-15T09:38:43.128Z,100.00
2024-01-15T09:41:11.389Z,100.00
2024-01-15T09:43:39.894Z,100.00
2024-01-15T09:46:10.657Z,100.00
2024-01-15T09:48:40.020Z,100.00
2024-01-15T09:51:11.697Z,98.88
2024-01-15T09:53:43.105Z,97.71
2024-01-15T09:56:11.819Z,94.35
2024-01-15T09:58:43.802Z,95.49
2024-01-15T10:01:16.725Z,94.86
2024-01-15T10:03:45.550Z,96.03
2024-01-15T10:09:44.307Z,92.84
2024-01-15T10:12:12.808Z,90.16
2024-01-15T10:21:30.155Z,88.84
2024-01-15T10:24:01.553Z,85.93
2024-01-15T10:26:29.658Z,86.96
2024-01-15T10:28:57.802Z,83.60
2024-01-15T10:31:30.370Z,82.86
2024-01-15T10:34:12.023Z,80.20
2024-01-15T10:36:42.097Z,78.53
2024-01-15T10:39:09.640Z,76.83
2024-01-15T10:41:38.213Z,77.25
2024-01-15T10:44:06.196Z,77.05
2024-01-15T10:46:34.236Z,78.00
2024-01-15T10:49:04.000Z,74.89
2024-01-15T10:51:32.080Z,73.18
2024-01-15T10:54:01.330Z,72.52
2024-01-15T10:56:29.426Z,69.09
2024-01-15T10:59:00.636Z,68.48
2024-01-15T11:01:30.969Z,66.37
2024-01-15T11:04:05.269Z,66.42
2024-01-15T11:06:49.963Z,66.09
2024-01-15T11:09:19.910Z,64.57
2024-01-15T11:11:48.371Z,65.01
2024-01-15T11:14:35.134Z,64.58
2024-01-15T11:17:04.969Z,64.69
2024-01-15T11:19:47.149Z,64.82
2024-01-15T11:22:31.100Z,65.17
2024-01-15T11:25:14.687Z,65.47
2024-01-15T11:27:44.565Z,65.75
2024-01-15T11:30:14.282Z,65.53
2024-01-15T11:32:42.879Z,65.47
2024-01-15T11:35:12.838Z,64.34
2024-01-15T11:37:55.836Z,65.23
2024-01-15T11:40:38.975Z,65.01
2024-01-15T11:43:08.286Z,65.40
2024-01-15T11:45:36.487Z,66.04
2024-01-15T11:48:19.741Z,65.95
2024-01-15T11:50:50.991Z,65.34
2024-01-15T11:53:37.311Z,65.52
2024-01-15T11:56:09.709Z,66.09
2024-01-15T11:58:38.660Z,65.11
2024-01-15T12:01:06.301Z,64.87
2024-01-15T12:03:34.991Z,64.72
2024-01-15T12:06:05.044Z,63.30
2024-01-15T12:08:32.942Z,64.17
2024-01-15T12:11:00.700Z,63.76
2024-01-15T12:16:58.081Z,63.73
2024-01-15T12:19:26.371Z,63.74
2024-01-15T12:21:54.599Z,62.67
2024-01-15T12:24:23.030Z,61.03
2024-01-15T12:26:52.404Z,61.56
2024-01-15T12:29:20.186Z,61.42
2024-01-15T12:31:49.748Z,60.72
2024-01-15T12:34:19.054Z,60.63
2024-01-15T12:36:49.962Z,60.70
2024-01-15T12:39:22.071Z,61.11
2024-01-15T12:41:49.919Z,60.96
2024-01-15T12:44:20.525Z,60.97
2024-01-15T12:46:49.416Z,62.26
2024-01-15T12:49:19.040Z,60.85
2024-01-15T12:51:58.685Z,60.36
2024-01-15T12:54:27.610Z,60.70
2024-01-15T12:56:56.107Z,60.41
2024-01-15T12:59:23.847Z,60.58
2024-01-15T13:01:51.973Z,60.75
2024-01-15T13:04:26.838Z,61.00
2024-01-15T13:06:54.830Z,61.15
2024-01-15T13:09:23.615Z,61.35
2024-01-15T13:11:51.394Z,61.79
2024-01-15T13:14:19.339Z,62.09
2024-01-15T13:16:48.795Z,62.06
2024-01-15T13:19:17.186Z,61.93
2024-01-15T13:21:45.316Z,61.89
2024-01-15T13:24:13.579Z,62.50
2024-01-15T13:26:41.735Z,62.83
2024-01-15T13:29:12.512Z,62.20
2024-01-15T13:31:40.526Z,62.51
2024-01-15T13:34:08.716Z,61.76
2024-01-15T13:36:36.441Z,62.27
2024-01-15T13:39:04.411Z,62.39
2024-01-15T13:41:34.604Z,62.52
2024-01-15T13:44:02.317Z,61.43
2024-01-15T13:46:30.860Z,61.13
2024-01-15T13:48:58.555Z,61.40
2024-01-15T13:51:26.240Z,62.63
2024-01-15T13:53:54.573Z,62.63
2024-01-15T13:56:22.283Z,63.00
2024-01-15T13:58:55.627Z,64.07
2024-01-15T14:01:23.924Z,63.88
2024-01-15T14:03:52.038Z,63.79
2024-01-15T14:06:19.912Z,63.05
2024-01-15T14:08:48.008Z,63.19
2024-01-15T14:11:16.101Z,63.30
2024-01-15T14:13:43.853Z,64.40
2024-01-15T14:16:13.155Z,64.77
2024-01-15T14:18:41.580Z,63.71
2024-01-15T14:21:09.451Z,63.34
2024-01-15T14:23:37.185Z,63.73
2024-01-15T14:26:06.887Z,64.46
2024-01-15T14:28:34.928Z,64.23
2024-01-15T14:31:02.884Z,64.46
2024-01-15T14:33:31.089Z,64.14
2024-01-15T14:36:01.613Z,64.69
2024-01-15T14:38:29.287Z,64.09
2024-01-15T14:41:03.064Z,64.49
2024-01-15T14:43:31.271Z,64.91
2024-01-15T14:45:59.858Z,66.13
2024-01-15T14:48:31.455Z,65.81
2024-01-15T14:50:59.492Z,65.94
2024-01-15T14:53:27.481Z,65.96
2024-01-15T14:55:55.745Z,66.54
2024-01-15T14:58:26.012Z,66.44
2024-01-15T15:00:54.150Z,66.41
2024-01-15T15:03:22.192Z,67.63
2024-01-15T15:05:51.046Z,68.07
2024-01-15T15:08:18.773Z,68.42
2024-01-15T15:10:46.982Z,69.21
2024-01-15T15:13:18.135Z,69.36
2024-01-15T15:19:16.640Z,69.78
2024-01-15T15:21:44.803Z,70.20
2024-01-15T15:24:13.048Z,70.67
2024-01-15T15:27:01.863Z,70.97
2024-01-15T15:29:29.961Z,70.89
2024-01-15T15:31:58.246Z,71.31
2024-01-15T15:34:25.865Z,71.02
2024-01-15T15:36:53.474Z,71.36
2024-01-15T15:39:22.800Z,71.78
2024-01-15T15:41:51.012Z,72.19
2024-01-15T15:44:18.991Z,72.07
2024-01-15T15:46:46.820Z,72.73
2024-01-15T15:49:16.704Z,73.46
2024-01-15T15:51:46.563Z,72.06
2024-01-15T15:54:15.783Z,72.58
2024-01-15T15:56:48.766Z,72.63
2024-01-15T15:59:19.168Z,73.55
2024-01-15T16:01:49.071Z,74.97
2024-01-15T16:04:19.063Z,75.02
2024-01-15T16:06:49.963Z,74.46
2024-01-15T16:09:17.603Z,75.56
2024-01-15T16:11:45.340Z,76.55
2024-01-15T16:14:13.066Z,75.88
2024-01-15T16:23:12.181Z,74.91
2024-01-15T16:23:25.425Z,76.22
2024-01-15T16:23:40.971Z,76.19
2024-01-15T16:25:06.513Z,78.60
2024-01-15T16:27:34.592Z,77.15
2024-01-15T16:30:20.637Z,77.92
2024-01-15T16:33:00.835Z,78.13
2024-01-15T16:35:29.411Z,77.98
2024-01-15T16:37:57.794Z,77.79
2024-01-15T16:40:25.493Z,78.06
2024-01-15T16:42:55.875Z,79.07
2024-01-15T16:45:25.400Z,80.02
2024-01-15T16:47:53.179Z,81.23
2024-01-15T16:50:20.928Z,82.88
2024-01-15T16:52:50.362Z,83.29
2024-01-15T16:55:18.420Z,83.82
2024-01-15T16:57:46.046Z,84.12
2024-01-15T17:00:14.597Z,83.70
2024-01-15T17:02:42.549Z,83.47
2024-01-15T17:05:11.021Z,84.32
2024-01-15T17:07:41.364Z,84.09
2024-01-15T17:10:10.790Z,84.78
2024-01-15T17:12:39.651Z,81.83
2024-01-15T17:15:08.976Z,82.02
2024-01-15T17:17:40.104Z,81.81
2024-01-15T17:20:10.132Z,80.89
2024-01-15T17:22:38.122Z,80.28
2024-01-15T17:25:07.293Z,80.67
2024-01-15T17:27:35.356Z,80.12
2024-01-15T17:30:03.086Z,79.40
2024-01-15T17:32:30.818Z,78.58
2024-01-15T17:34:59.710Z,79.62
2024-01-15T17:37:30.106Z,76.94
2024-01-15T17:39:58.499Z,75.92
2024-01-15T17:42:26.685Z,75.76
2024-01-15T17:44:54.472Z,75.61
2024-01-15T17:47:22.412Z,75.47
2024-01-15T17:49:50.777Z,75.44
2024-01-15T17:52:18.715Z,75.54
2024-01-15T17:54:46.604Z,75.83
2024-01-15T17:57:16.776Z,75.35
2024-01-15T17:59:45.239Z,76.32
2024-01-15T18:02:13.065Z,76.67
2024-01-15T18:04:41.528Z,76.85
2024-01-15T18:07:09.178Z,76.29
2024-01-15T18:09:38.671Z,77.21
2024-01-15T18:12:07.516Z,76.22
2024-01-15T18:14:37.602Z,76.23
2024-01-15T18:20:39.471Z,75.48
2024-01-15T18:26:38.173Z,75.51
2024-01-15T18:29:06.124Z,75.32
2024-01-15T18:31:35.251Z,76.48
2024-01-15T18:34:04.829Z,76.29
2024-01-15T18:36:33.784Z,76.49
2024-01-15T18:39:07.096Z,76.10
2024-01-15T18:41:38.417Z,75.99
2024-01-15T18:44:05.983Z,75.37
2024-01-15T18:46:34.080Z,75.61
2024-01-15T18:49:09.290Z,75.43
2024-01-15T18:51:37.004Z,76.45
2024-01-15T18:54:06.434Z,76.83
2024-01-15T18:56:41.796Z,77.21
2024-01-15T18:59:10.052Z,77.64
2024-01-15T19:01:40.961Z,78.45
2024-01-15T19:04:13.073Z,77.45
2024-01-15T19:06:42.898Z,77.28
2024-01-15T19:09:12.034Z,77.48
2024-01-15T19:11:41.540Z,77.13
2024-01-15T19:14:09.714Z,77.69
2024-01-15T19:16:37.599Z,78.06
2024-01-15T19:19:05.417Z,79.08
2024-01-15T19:21:34.314Z,80.41
2024-01-15T19:24:03.608Z,80.14
2024-01-15T19:26:31.549Z,78.87
2024-01-15T19:29:03.089Z,78.80
2024-01-15T19:31:31.307Z,78.05
2024-01-15T19:34:01.108Z,78.31
2024-01-15T19:36:29.397Z,78.57
2024-01-15T19:38:57.104Z,80.72
2024-01-15T19:41:25.508Z,79.74
2024-01-15T19:43:54.004Z,80.05
2024-01-15T19:46:22.576Z,79.60
2024-01-15T19:48:50.868Z,80.32
2024-01-15T19:51:23.617Z,80.61
2024-01-15T19:53:54.411Z,81.74
2024-01-15T19:56:22.962Z,84.22
2024-01-15T19:58:52.932Z,83.73
2024-01-15T20:01:22.514Z,83.96
2024-01-15T20:03:51.819Z,85.49
2024-01-15T20:06:20.417Z,84.80
2024-01-15T20:12:02.430Z,86.60
2024-01-15T20:14:31.920Z,89.90
2024-01-15T20:17:01.150Z,88.18
2024-01-15T20:19:29.333Z,88.57
2024-01-15T20:25:35.221Z,89.68
2024-01-15T20:31:34.748Z,90.95
2024-01-15T20:34:02.796Z,90.12
2024-01-15T20:36:34.918Z,92.21
2024-01-15T20:39:04.003Z,88.71
2024-01-15T20:41:36.775Z,88.61
2024-01-15T20:44:06.270Z,89.79
2024-01-15T20:49:52.188Z,88.95
2024-01-15T20:52:22.543Z,87.06
2024-01-15T20:54:52.783Z,85.15
2024-01-15T20:57:29.270Z,86.09
2024-01-15T21:00:00.333Z,86.31
2024-01-15T21:02:28.870Z,86.71
2024-01-15T21:04:56.616Z,87.66
2024-01-15T21:07:24.847Z,87.39
2024-01-15T21:09:53.014Z,88.58
2024-01-15T21:12:22.845Z,90.30
2024-01-15T21:14:50.787Z,87.76
2024-01-15T21:17:19.137Z,89.87
2024-01-15T21:19:47.846Z,93.20
2024-01-15T21:22:17.052Z,95.04
2024-01-15T21:24:45.568Z,93.92
2024-01-15T21:27:13.219Z,93.35
2024-01-15T21:29:40.951Z,92.96
2024-01-15T21:32:08.961Z,94.40
2024-01-15T21:34:36.731Z,94.92
2024-01-15T21:37:06.003Z,96.47
2024-01-15T21:39:35.000Z,95.67
2024-01-15T21:42:02.622Z,97.28
2024-01-15T21:44:30.769Z,97.92
2024-01-15T21:46:59.456Z,95.21
2024-01-15T21:49:27.501Z,96.80
2024-01-15T21:51:57.028Z,95.91
2024-01-15T21:54:25.041Z,91.91
2024-01-15T21:56:53.334Z,92.33
2024-01-15T21:59:21.993Z,94.07
2024-01-15T22:01:56.192Z,92.14
2024-01-15T22:04:24.263Z,93.73
2024-01-15T22:06:53.461Z,91.88
2024-01-15T22:09:26.317Z,91.25
2024-01-15T22:11:54.313Z,90.95
2024-01-15T22:14:23.374Z,89.11
2024-01-15T22:16:53.360Z,88.80
2024-01-15T22:19:21.329Z,88.64
2024-01-15T22:21:49.706Z,88.84
2024-01-15T22:24:18.350Z,89.48
2024-01-15T22:26:46.623Z,90.43
2024-01-15T22:29:14.335Z,90.77
2024-01-15T22:31:42.395Z,90.41
2024-01-15T22:34:12.858Z,89.58
2024-01-15T22:36:40.692Z,88.97
2024-01-15T22:39:08.411Z,88.81
2024-01-15T22:41:36.384Z,89.88
2024-01-15T22:44:04.036Z,89.93
2024-01-15T22:46:33.338Z,89.01
2024-01-15T22:49:01.354Z,88.85
2024-01-15T22:51:29.047Z,88.03
2024-01-15T22:53:56.482Z,87.81
2024-01-15T22:56:24.456Z,88.51
2024-01-15T22:58:52.120Z,88.06
2024-01-15T23:01:21.721Z,87.49
2024-01-15T23:03:49.884Z,87.71
2024-01-15T23:06:20.068Z,89.18
2024-01-15T23:08:49.321Z,90.43
2024-01-15T23:11:16.812Z,92.40
2024-01-15T23:13:44.312Z,93.66
2024-01-15T23:16:15.198Z,94.46
2024-01-15T23:18:43.050Z,94.59
2024-01-15T23:21:10.771Z,95.01
2024-01-15T23:23:38.440Z,95.29
2024-01-15T23:26:11.660Z,95.74
2024-01-15T23:28:41.341Z,95.90
2024-01-15T23:31:09.258Z,96.66
2024-01-15T23:33:36.612Z,97.68
2024-01-15T23:36:04.933Z,98.89
2024-01-15T23:38:32.432Z,100.00
2024-01-15T23:40:59.894Z,100.00
2024-01-15T23:43:27.516Z,100.00
2024-01-15T23:45:59.752Z,100.00
2024-01-15T23:48:34.105Z,100.00
2024-01-15T23:51:04.278Z,100.00
2024-01-15T23:53:31.933Z,100.00
2024-01-15T23:56:01.899Z,100.00
2024-01-15T23:58:29.824Z,100.00
